Time;durP1;ratioP1;P1;durP2;ratioP2;P2;SDS_P1;SDS_P2;PMS_P1;PMS_P2;Temp;Humidity;BMP_temperature;BMP_pressure;BME280_temperature;BME280_humidity;BME280_pressure;Samples;Min_cycle;Max_cycle;Signal;HPM_P1;HPM_P2
2023/10/24 00:01:54;;;;;;;6.10;5.10;;;;;;;11.14;100.00;100123.19;88378;277;137184;-65
2023/10/24 00:03:56;;;;;;;5.40;4.90;;;;;;;11.11;100.00;100123.59;88521;273;25306;-66
2023/10/24 00:05:58;;;;;;;4.90;4.50;;;;;;;11.07;100.00;100127.05;88553;280;136711;-67
2023/10/24 00:08:00;;;;;;;5.40;4.90;;;;;;;11.05;100.00;100123.77;88507;272;24195;-66
2023/10/24 00:10:03;;;;;;;5.70;5.10;;;;;;;11.03;100.00;100124.82;88478;277;22599;-67
2023/10/24 00:12:05;;;;;;;4.70;4.30;;;;;;;11.01;100.00;100124.08;88520;280;138894;-68
2023/10/24 00:14:07;;;;;;;4.70;4.30;;;;;;;10.98;100.00;100125.70;88507;273;22552;-68
2023/10/24 00:16:09;;;;;;;5.60;5.10;;;;;;;10.95;100.00;100125.75;88363;273;137602;-67
2023/10/24 00:18:13;;;;;;;7.10;5.00;;;;;;;10.90;100.00;100130.80;88577;281;22554;-66
2023/10/24 00:20:15;;;;;;;5.70;4.90;;;;;;;10.85;100.00;100130.77;88308;281;138720;-67
2023/10/24 00:22:17;;;;;;;5.40;4.90;;;;;;;10.82;100.00;100142.90;88458;280;22605;-68
2023/10/24 00:24:21;;;;;;;6.10;4.90;;;;;;;10.79;100.00;100143.53;88708;281;138849;-66
2023/10/24 00:26:23;;;;;;;6.60;5.70;;;;;;;10.76;100.00;100144.49;88454;280;22615;-68
2023/10/24 00:28:25;;;;;;;5.00;4.60;;;;;;;10.74;100.00;100140.58;88309;280;138656;-65
2023/10/24 00:30:27;;;;;;;6.90;6.00;;;;;;;10.74;100.00;100141.27;88428;282;22540;-67
2023/10/24 00:32:30;;;;;;;5.50;4.70;;;;;;;10.74;100.00;100139.14;88363;274;137065;-67
2023/10/24 00:34:31;;;;;;;5.50;4.80;;;;;;;10.73;100.00;100140.71;88488;275;22535;-70
2023/10/24 00:36:34;;;;;;;6.90;5.50;;;;;;;10.72;100.00;100145.05;88389;281;138058;-66
2023/10/24 00:38:37;;;;;;;4.90;4.40;;;;;;;10.71;100.00;100142.41;88542;273;25086;-65
2023/10/24 00:40:39;;;;;;;6.00;5.10;;;;;;;10.70;100.00;100145.56;88400;274;137201;-67
2023/10/24 00:42:41;;;;;;;4.30;3.90;;;;;;;10.69;100.00;100146.74;88450;279;22534;-65
2023/10/24 00:44:42;;;;;;;4.90;4.50;;;;;;;10.69;100.00;100150.92;88362;282;138166;-69
2023/10/24 00:46:44;;;;;;;5.30;4.90;;;;;;;10.69;100.00;100150.40;88479;281;22926;-67
2023/10/24 00:48:47;;;;;;;5.50;5.10;;;;;;;10.67;100.00;100153.21;88427;274;137177;-67
2023/10/24 00:50:49;;;;;;;6.30;5.20;;;;;;;10.67;100.00;100151.86;88572;281;22552;-73
2023/10/24 00:52:51;;;;;;;5.00;4.60;;;;;;;10.66;100.00;100151.77;88524;282;138079;-70
2023/10/24 00:54:54;;;;;;;5.40;4.50;;;;;;;10.64;100.00;100152.73;88592;273;23475;-71
2023/10/24 00:56:56;;;;;;;5.60;4.20;;;;;;;10.60;100.00;100148.78;88055;277;502126;-70
2023/10/24 00:59:00;;;;;;;5.80;4.80;;;;;;;10.58;100.00;100148.17;88442;283;25087;-68
2023/10/24 01:01:08;;;;;;;6.40;5.20;;;;;;;10.58;100.00;100150.52;88459;283;137907;-69
2023/10/24 01:03:11;;;;;;;5.10;4.70;;;;;;;10.56;100.00;100153.45;88303;275;25239;-70
2023/10/24 01:05:16;;;;;;;5.00;4.50;;;;;;;10.53;100.00;100154.38;88495;281;138236;-68
2023/10/24 01:07:18;;;;;;;4.90;4.40;;;;;;;10.48;100.00;100157.41;88550;273;25222;-69
2023/10/24 01:09:20;;;;;;;7.30;4.40;;;;;;;10.44;100.00;100156.02;88471;273;138483;-69
2023/10/24 01:11:23;;;;;;;5.00;4.60;;;;;;;10.41;100.00;100156.52;88961;273;22535;-69
2023/10/24 01:13:25;;;;;;;5.50;5.00;;;;;;;10.40;100.00;100158.64;88540;277;137268;-71
2023/10/24 01:15:27;;;;;;;4.40;4.10;;;;;;;10.38;100.00;100157.23;88440;279;22537;-71
2023/10/24 01:17:29;;;;;;;4.40;4.10;;;;;;;10.37;100.00;100159.15;88372;274;138668;-70
2023/10/24 01:19:32;;;;;;;5.80;4.60;;;;;;;10.35;100.00;100162.61;89059;273;22555;-71
2023/10/24 01:21:34;;;;;;;5.10;4.70;;;;;;;10.34;100.00;100162.04;88363;273;136687;-69
2023/10/24 01:23:37;;;;;;;4.50;4.10;;;;;;;10.33;100.00;100157.10;88513;273;22706;-71
2023/10/24 01:25:40;;;;;;;5.70;5.20;;;;;;;10.32;100.00;100154.39;88353;277;137186;-71
2023/10/24 01:27:43;;;;;;;6.80;5.00;;;;;;;10.31;100.00;100158.27;88498;281;22536;-70
2023/10/24 01:29:45;;;;;;;6.00;5.60;;;;;;;10.30;100.00;100153.20;88446;272;138447;-71
2023/10/24 01:31:47;;;;;;;5.40;5.00;;;;;;;10.32;100.00;100157.96;88637;280;22562;-73
2023/10/24 01:33:49;;;;;;;5.50;5.10;;;;;;;10.33;100.00;100159.65;88532;273;138637;-69
2023/10/24 01:35:51;;;;;;;5.90;5.20;;;;;;;10.32;100.00;100160.49;88676;281;25212;-68
2023/10/24 01:37:53;;;;;;;4.60;4.40;;;;;;;10.29;100.00;100163.80;88555;280;137092;-73
2023/10/24 01:39:55;;;;;;;5.00;4.60;;;;;;;10.27;100.00;100159.84;88624;282;22615;-67
2023/10/24 01:41:57;;;;;;;5.40;4.90;;;;;;;10.25;100.00;100159.84;88696;277;136701;-67
2023/10/24 01:43:59;;;;;;;5.50;4.90;;;;;;;10.24;100.00;100161.05;88773;277;22706;-67
2023/10/24 01:46:01;;;;;;;5.60;5.20;;;;;;;10.23;100.00;100162.85;88534;274;138309;-66
2023/10/24 01:48:04;;;;;;;6.40;5.10;;;;;;;10.22;100.00;100160.79;88521;273;137464;-68
2023/10/24 01:50:07;;;;;;;5.90;5.40;;;;;;;10.21;100.00;100155.94;88528;277;22534;-73
2023/10/24 01:52:08;;;;;;;6.10;5.50;;;;;;;10.19;100.00;100163.13;88405;273;138746;-68
2023/10/24 01:54:10;;;;;;;5.30;4.90;;;;;;;10.16;100.00;100166.99;88587;273;25134;-69
2023/10/24 01:56:14;;;;;;;6.80;6.20;;;;;;;10.13;100.00;100167.54;88441;280;138727;-70
2023/10/24 01:58:16;;;;;;;7.10;5.60;;;;;;;10.11;100.00;100163.59;88480;274;25412;-71
2023/10/24 02:00:18;;;;;;;7.60;6.90;;;;;;;10.09;100.00;100168.48;88467;281;137480;-73
2023/10/24 02:02:20;;;;;;;8.00;6.80;;;;;;;10.07;100.00;100170.23;88671;273;22523;-71
2023/10/24 02:04:24;;;;;;;8.20;7.50;;;;;;;10.07;100.00;100169.69;88598;280;137079;-72
2023/10/24 02:06:26;;;;;;;10.10;9.30;;;;;;;10.05;100.00;100170.50;88607;282;22563;-71
2023/10/24 02:08:29;;;;;;;11.30;10.20;;;;;;;10.03;100.00;100171.56;88512;279;137208;-71
2023/10/24 02:10:34;;;;;;;12.10;10.10;;;;;;;9.98;100.00;100170.66;88653;281;22531;-68
2023/10/24 02:12:36;;;;;;;9.30;8.50;;;;;;;9.96;100.00;100174.54;88506;281;138307;-71
2023/10/24 02:14:38;;;;;;;8.80;8.00;;;;;;;9.94;100.00;100175.41;88563;279;25168;-68
2023/10/24 02:16:41;;;;;;;8.40;7.70;;;;;;;9.91;100.00;100176.82;88797;274;138316;-72
2023/10/24 02:18:43;;;;;;;10.20;6.00;;;;;;;9.89;100.00;100177.13;88643;280;25087;-69
2023/10/24 02:20:44;;;;;;;5.90;5.30;;;;;;;9.85;100.00;100177.77;88498;280;137515;-70
2023/10/24 02:22:49;;;;;;;5.30;4.90;;;;;;;9.81;100.00;100181.85;88487;275;22526;-74
2023/10/24 02:24:51;;;;;;;6.30;5.10;;;;;;;9.75;100.00;100180.20;88425;273;137039;-74
2023/10/24 02:26:53;;;;;;;5.90;5.30;;;;;;;9.72;100.00;100183.96;88635;280;22720;-69
2023/10/24 02:28:58;;;;;;;6.80;5.10;;;;;;;9.69;100.00;100181.92;88509;273;139580;-75
2023/10/24 02:31:02;;;;;;;6.90;5.60;;;;;;;9.68;100.00;100187.31;88596;281;25007;-71
2023/10/24 02:33:06;;;;;;;6.70;6.10;;;;;;;9.64;100.00;100189.48;88513;281;136959;-74
2023/10/24 02:35:09;;;;;;;6.50;5.70;;;;;;;9.62;100.00;100187.86;88721;279;25214;-71
2023/10/24 02:37:10;;;;;;;6.40;5.30;;;;;;;9.63;100.00;100186.55;88493;281;137599;-71
2023/10/24 02:39:14;;;;;;;6.60;4.80;;;;;;;9.60;100.00;100181.04;88591;280;24057;-71
2023/10/24 02:41:16;;;;;;;5.00;4.30;;;;;;;9.60;100.00;100186.11;88513;280;137926;-71
2023/10/24 02:43:20;;;;;;;6.80;5.00;;;;;;;9.58;100.00;100185.84;88607;277;25225;-69
2023/10/24 02:45:23;;;;;;;5.60;5.10;;;;;;;9.54;100.00;100183.42;88515;277;138361;-67
2023/10/24 02:47:25;;;;;;;5.30;4.90;;;;;;;9.51;100.00;100184.65;88498;282;22536;-68
2023/10/24 02:49:30;;;;;;;7.40;4.90;;;;;;;9.49;100.00;100187.08;88476;276;138513;-69
2023/10/24 02:51:32;;;;;;;5.40;4.90;;;;;;;9.44;100.00;100188.90;88645;280;25364;-69
2023/10/24 02:53:34;;;;;;;8.00;5.40;;;;;;;9.40;100.00;100189.17;88476;278;138076;-72
2023/10/24 02:55:36;;;;;;;5.60;5.20;;;;;;;9.38;100.00;100191.08;88520;281;25233;-72
2023/10/24 02:57:38;;;;;;;6.20;5.50;;;;;;;9.38;100.00;100188.84;88473;277;137016;-68
2023/10/24 02:59:39;;;;;;;5.90;5.50;;;;;;;9.37;100.00;100190.68;88529;278;26295;-74
2023/10/24 03:01:42;;;;;;;5.10;4.60;;;;;;;9.35;100.00;100190.13;88435;281;136833;-70
2023/10/24 03:03:43;;;;;;;5.80;5.20;;;;;;;9.34;100.00;100192.77;88474;279;25233;-72
2023/10/24 03:05:45;;;;;;;6.00;5.50;;;;;;;9.32;100.00;100189.30;88384;274;138440;-69
2023/10/24 03:07:47;;;;;;;6.10;5.60;;;;;;;9.30;100.00;100187.23;88401;273;22572;-74
2023/10/24 03:09:49;;;;;;;6.90;6.10;;;;;;;9.27;100.00;100189.89;89622;281;136764;-69
2023/10/24 03:11:51;;;;;;;6.40;5.80;;;;;;;9.24;100.00;100187.31;88546;281;22648;-68
2023/10/24 03:13:53;;;;;;;6.10;5.50;;;;;;;9.23;100.00;100188.84;88450;280;136881;-65
2023/10/24 03:16:03;;;;;;;6.50;6.00;;;;;;;9.20;100.00;100186.14;88587;281;24069;-71
2023/10/24 03:18:05;;;;;;;5.90;5.40;;;;;;;9.18;100.00;100187.63;88577;281;23013;-71
2023/10/24 03:20:08;;;;;;;9.50;6.10;;;;;;;9.13;100.00;100184.63;88558;281;137037;-69
2023/10/24 03:22:09;;;;;;;7.00;6.30;;;;;;;9.11;100.00;100184.55;88496;281;24225;-71
2023/10/24 03:24:14;;;;;;;5.70;5.20;;;;;;;9.08;100.00;100185.50;88413;281;137139;-72
2023/10/24 03:26:16;;;;;;;6.80;6.20;;;;;;;9.07;100.00;100186.38;88530;280;22734;-72
2023/10/24 03:28:18;;;;;;;6.70;6.00;;;;;;;9.07;100.00;100193.09;88480;280;138482;-72
2023/10/24 03:30:21;;;;;;;6.90;6.30;;;;;;;9.07;100.00;100197.20;88491;280;22544;-72
2023/10/24 03:32:22;;;;;;;7.20;6.60;;;;;;;9.09;100.00;100192.42;88509;273;137242;-71
2023/10/24 03:34:25;;;;;;;7.50;6.70;;;;;;;9.09;100.00;100194.27;88517;280;22600;-73
2023/10/24 03:36:27;;;;;;;7.40;6.70;;;;;;;9.08;100.00;100194.22;88655;277;137011;-69
2023/10/24 03:38:30;;;;;;;6.10;5.60;;;;;;;9.07;100.00;100194.14;88738;277;25556;-70
2023/10/24 03:40:32;;;;;;;7.90;5.80;;;;;;;9.07;100.00;100190.34;88532;280;138551;-70
2023/10/24 03:42:34;;;;;;;6.60;6.00;;;;;;;9.05;100.00;100191.06;88565;281;25258;-70
2023/10/24 03:44:36;;;;;;;7.10;6.50;;;;;;;9.03;100.00;100189.71;88490;277;137159;-71
2023/10/24 03:46:38;;;;;;;6.90;6.10;;;;;;;9.04;100.00;100195.95;88609;280;25549;-72
2023/10/24 03:48:41;;;;;;;6.90;6.20;;;;;;;9.02;100.00;100195.54;88440;277;136837;-70
2023/10/24 03:50:43;;;;;;;8.00;6.20;;;;;;;8.98;100.00;100196.02;88565;281;22596;-71
2023/10/24 03:52:45;;;;;;;7.00;6.40;;;;;;;8.98;100.00;100194.63;88431;273;137092;-72
2023/10/24 03:54:47;;;;;;;7.80;7.00;;;;;;;8.98;100.00;100193.48;88560;273;22754;-70
2023/10/24 03:56:49;;;;;;;7.20;6.50;;;;;;;8.96;100.00;100194.92;88423;280;137155;-71
2023/10/24 03:58:51;;;;;;;7.00;6.30;;;;;;;8.95;100.00;100194.91;88549;277;24087;-70
2023/10/24 04:00:53;;;;;;;7.90;7.20;;;;;;;8.93;100.00;100196.39;88369;280;138681;-70
2023/10/24 04:02:56;;;;;;;9.10;7.40;;;;;;;8.86;100.00;100188.11;88388;273;22533;-70
2023/10/24 04:04:58;;;;;;;7.30;6.60;;;;;;;8.87;100.00;100196.19;88356;273;136960;-68
2023/10/24 04:06:59;;;;;;;8.30;6.90;;;;;;;8.84;100.00;100194.59;88437;273;22531;-69
2023/10/24 04:09:05;;;;;;;8.10;7.30;;;;;;;8.82;100.00;100191.85;88407;273;138127;-71
2023/10/24 04:11:17;;;;;;;10.40;8.40;;;;;;;8.81;100.00;100193.91;88477;273;22557;-70
2023/10/24 04:13:18;;;;;;;8.00;7.30;;;;;;;8.83;100.00;100193.89;88450;277;137437;-69
2023/10/24 04:15:20;;;;;;;9.00;7.10;;;;;;;8.83;100.00;100194.76;88435;274;24054;-71
2023/10/24 04:17:22;;;;;;;11.70;8.40;;;;;;;8.83;100.00;100191.16;88331;273;136936;-71
2023/10/24 04:19:24;;;;;;;8.20;7.40;;;;;;;8.84;100.00;100200.46;88460;280;22548;-70
2023/10/24 04:21:26;;;;;;;8.90;8.00;;;;;;;8.85;100.00;100201.65;88328;273;138311;-70
2023/10/24 04:23:28;;;;;;;7.50;6.60;;;;;;;8.85;100.00;100200.21;88540;277;22553;-71
2023/10/24 04:25:30;;;;;;;7.60;6.80;;;;;;;8.84;100.00;100198.91;88347;274;138477;-71
2023/10/24 04:27:32;;;;;;;11.00;8.30;;;;;;;8.83;100.00;100205.18;88543;273;24207;-71
2023/10/24 04:29:35;;;;;;;9.60;8.40;;;;;;;8.83;100.00;100206.28;88279;274;137414;-69
2023/10/24 04:31:36;;;;;;;8.70;7.80;;;;;;;8.74;100.00;100192.37;88379;275;24059;-69
2023/10/24 04:33:40;;;;;;;10.10;9.00;;;;;;;8.83;100.00;100205.60;88318;274;137058;-70
2023/10/24 04:35:45;;;;;;;13.30;9.80;;;;;;;8.82;100.00;100205.70;88487;278;22544;-70
2023/10/24 04:37:47;;;;;;;;;;;;;;;8.81;100.00;100209.65;88533;278;137223;-70
2023/10/24 04:39:49;;;;;;;9.10;8.10;;;;;;;8.80;100.00;100208.03;88190;275;22673;-70
2023/10/24 04:41:51;;;;;;;9.70;7.40;;;;;;;8.77;100.00;100210.10;88154;275;137779;-68
2023/10/24 04:43:53;;;;;;;9.40;8.50;;;;;;;8.76;100.00;100216.91;88399;274;22550;-69
2023/10/24 04:45:55;;;;;;;10.90;8.20;;;;;;;8.75;100.00;100216.85;88142;275;136597;-68
2023/10/24 04:48:00;;;;;;;9.90;9.00;;;;;;;8.76;100.00;100219.60;88357;278;22520;-70
2023/10/24 04:50:03;;;;;;;10.70;9.30;;;;;;;8.78;100.00;100223.51;88274;275;136754;-69
2023/10/24 04:52:06;;;;;;;10.90;9.60;;;;;;;8.80;100.00;100223.48;88295;274;137673;-70
2023/10/24 04:54:08;;;;;;;11.10;9.70;;;;;;;8.82;100.00;100225.30;88509;281;22618;-70
2023/10/24 04:56:10;;;;;;;10.20;9.10;;;;;;;8.87;100.00;100227.75;88380;273;137366;-70
2023/10/24 05:00:27;;;;;;;12.50;9.10;;;;;;;9.00;100.00;100227.33;86914;305;603910;-70
2023/10/24 05:02:29;;;;;;;10.90;9.40;;;;;;;9.21;100.00;100223.56;87812;293;25261;-69
2023/10/24 05:04:31;;;;;;;10.20;8.60;;;;;;;9.38;100.00;100222.77;88082;282;136465;-70
2023/10/24 05:06:33;;;;;;;8.70;7.70;;;;;;;9.61;100.00;100221.33;88665;281;22606;-69
2023/10/24 05:08:34;;;;;;;9.00;8.10;;;;;;;9.90;100.00;100220.79;88103;278;137306;-70
2023/10/24 05:10:36;;;;;;;9.60;8.30;;;;;;;10.23;100.00;100223.50;88231;282;22543;-71
2023/10/24 05:12:38;;;;;;;8.70;6.90;;;;;;;10.51;100.00;100218.69;88047;281;136531;-70
2023/10/24 05:14:40;;;;;;;8.70;7.80;;;;;;;10.93;100.00;100234.58;87930;281;594742;-70
2023/10/24 05:16:42;;;;;;;12.50;8.00;;;;;;;11.18;100.00;100234.69;88192;277;136734;-70
2023/10/24 05:18:44;;;;;;;10.00;6.90;;;;;;;11.20;100.00;100237.20;88263;281;25240;-69
2023/10/24 05:20:46;;;;;;;9.60;7.40;;;;;;;11.07;100.00;100246.84;88135;277;136658;-70
2023/10/24 05:22:48;;;;;;;9.60;8.40;;;;;;;10.89;100.00;100250.77;88214;277;23507;-68
2023/10/24 05:24:49;;;;;;;7.60;6.70;;;;;;;10.75;100.00;100251.16;88193;283;136736;-71
2023/10/24 05:26:51;;;;;;;9.40;7.70;;;;;;;10.74;100.00;100253.50;88216;277;23823;-70
2023/10/24 05:28:53;;;;;;;9.30;8.30;;;;;;;10.92;100.00;100254.23;88194;276;136548;-69
2023/10/24 05:30:55;;;;;;;8.00;7.10;;;;;;;11.30;100.00;100247.73;88339;277;22549;-71
2023/10/24 05:32:58;;;;;;;10.00;8.20;;;;;;;11.75;100.00;100253.75;88258;276;136750;-73
2023/10/24 05:35:00;;;;;;;9.90;7.10;;;;;;;12.17;100.00;100255.30;88432;283;25216;-70
2023/10/24 05:37:02;;;;;;;9.60;7.40;;;;;;;12.57;100.00;100258.69;88193;280;136854;-70
2023/10/24 05:39:04;;;;;;;7.70;6.90;;;;;;;12.97;100.00;100261.85;88372;281;25219;-72
2023/10/24 05:41:05;;;;;;;8.60;7.20;;;;;;;13.29;100.00;100263.56;88183;277;137739;-71
2023/10/24 05:43:07;;;;;;;7.30;6.70;;;;;;;13.59;100.00;100254.92;88298;276;22534;-70
2023/10/24 05:45:09;;;;;;;7.80;7.00;;;;;;;14.01;100.00;100253.88;88257;277;136752;-72
2023/10/24 05:47:11;;;;;;;7.10;6.50;;;;;;;14.37;100.00;100254.02;88428;276;22543;-71
2023/10/24 05:49:13;;;;;;;8.30;7.50;;;;;;;14.58;100.00;100254.94;88246;284;137854;-71
2023/10/24 05:51:22;;;;;;;10.00;7.80;;;;;;;14.61;100.00;100257.94;88257;281;22536;-68
2023/10/24 05:53:25;;;;;;;9.40;8.50;;;;;;;14.41;100.00;100254.77;88303;276;136770;-71
2023/10/24 05:55:27;;;;;;;10.30;8.10;;;;;;;14.01;100.00;100254.54;88355;276;22532;-70
2023/10/24 05:57:30;;;;;;;8.60;7.80;;;;;;;13.50;100.00;100258.66;88178;276;137150;-68
2023/10/24 05:59:33;;;;;;;10.10;7.70;;;;;;;13.07;100.00;100257.48;88281;276;22548;-67
2023/10/24 06:01:36;;;;;;;9.00;8.20;;;;;;;12.66;100.00;100260.38;88121;276;136452;-72
2023/10/24 06:03:38;;;;;;;8.70;7.80;;;;;;;12.38;100.00;100262.35;88336;281;24891;-73
2023/10/24 06:05:40;;;;;;;9.20;8.10;;;;;;;12.18;100.00;100262.42;88236;276;136824;-72
2023/10/24 06:07:42;;;;;;;11.10;8.30;;;;;;;11.93;100.00;100255.01;88250;279;25371;-71
2023/10/24 06:09:44;;;;;;;10.80;8.10;;;;;;;11.76;100.00;100259.17;88352;276;136770;-73
2023/10/24 06:11:47;;;;;;;12.00;9.40;;;;;;;11.52;100.00;100245.45;88235;276;22545;-71
2023/10/24 06:13:48;;;;;;;9.40;8.50;;;;;;;11.44;100.00;100255.52;88205;276;136968;-70
2023/10/24 06:15:50;;;;;;;8.60;7.80;;;;;;;11.34;100.00;100258.61;88294;283;25331;-72
2023/10/24 06:17:55;;;;;;;9.70;8.90;;;;;;;11.22;100.00;100259.66;88254;275;137453;-71
2023/10/24 06:19:57;;;;;;;9.10;8.00;;;;;;;11.15;100.00;100258.96;88283;277;27416;-73
2023/10/24 06:21:59;;;;;;;10.60;9.60;;;;;;;11.10;100.00;100260.86;88211;276;136649;-71
2023/10/24 06:24:01;;;;;;;11.00;9.80;;;;;;;11.05;100.00;100257.91;88363;281;25216;-69
2023/10/24 06:26:03;;;;;;;10.50;9.40;;;;;;;11.01;100.00;100258.82;88648;285;22526;-73
2023/10/24 06:28:06;;;;;;;15.60;10.20;;;;;;;11.04;100.00;100263.39;88246;277;137174;-71
2023/10/24 06:30:08;;;;;;;11.90;9.20;;;;;;;11.06;100.00;100263.65;88660;281;22548;-72
2023/10/24 06:32:10;;;;;;;12.70;11.00;;;;;;;11.09;100.00;100264.23;88484;277;138006;-72
2023/10/24 06:34:12;;;;;;;11.10;9.90;;;;;;;11.12;100.00;100268.95;88441;281;22528;-72
2023/10/24 06:36:15;;;;;;;11.70;10.50;;;;;;;11.11;100.00;100269.92;88241;277;136671;-73
2023/10/24 06:38:17;;;;;;;12.60;9.80;;;;;;;11.07;100.00;100269.58;88395;276;22542;-73
2023/10/24 06:40:19;;;;;;;11.60;9.10;;;;;;;11.08;100.00;100270.00;88267;276;137347;-72
2023/10/24 06:42:21;;;;;;;11.10;10.00;;;;;;;11.13;100.00;100266.13;88532;275;22550;-76
2023/10/24 06:44:26;;;;;;;12.00;8.90;;;;;;;11.16;100.00;100269.27;88173;276;141199;-71
2023/10/24 06:46:27;;;;;;;11.00;8.60;;;;;;;11.23;100.00;100269.94;88292;276;25265;-72
2023/10/24 06:48:31;;;;;;;9.60;8.10;;;;;;;11.30;100.00;100269.10;88203;283;138950;-73
2023/10/24 06:50:34;;;;;;;11.80;8.60;;;;;;;11.39;100.00;100272.59;88590;283;22733;-72
2023/10/24 06:52:35;;;;;;;12.40;8.60;;;;;;;11.47;100.00;100274.20;88284;276;137080;-71
2023/10/24 06:54:38;;;;;;;15.30;8.30;;;;;;;11.53;100.00;100273.51;88295;285;25156;-74
2023/10/24 06:56:39;;;;;;;12.80;9.00;;;;;;;11.54;100.00;100274.99;88226;276;136908;-71
2023/10/24 06:58:41;;;;;;;9.90;8.30;;;;;;;11.55;100.00;100276.56;88229;285;24817;-71
2023/10/24 07:00:44;;;;;;;11.60;7.80;;;;;;;11.63;100.00;100278.13;88239;285;136527;-74
2023/10/24 07:02:46;;;;;;;9.90;7.70;;;;;;;11.72;100.00;100273.78;88687;280;22536;-73
2023/10/24 07:04:48;;;;;;;11.60;7.60;;;;;;;11.77;100.00;100270.77;88394;284;137807;-72
2023/10/24 07:06:49;;;;;;;15.00;7.50;;;;;;;11.79;100.00;100273.09;88249;284;22816;-70
2023/10/24 07:08:52;;;;;;;13.00;8.20;;;;;;;11.83;100.00;100273.92;88195;281;137312;-73
2023/10/24 07:10:56;;;;;;;9.40;6.70;;;;;;;11.85;100.00;100273.97;88368;275;22551;-73
2023/10/24 07:12:58;;;;;;;7.40;6.30;;;;;;;11.89;100.00;100278.77;88141;277;136475;-73
2023/10/24 07:15:00;;;;;;;9.30;6.80;;;;;;;11.92;100.00;100277.57;88194;283;25083;-72
2023/10/24 07:17:02;;;;;;;6.50;5.80;;;;;;;12.00;100.00;100283.71;88166;276;136880;-71
2023/10/24 07:19:04;;;;;;;7.60;5.50;;;;;;;12.11;100.00;100284.77;88295;284;22531;-70
2023/10/24 07:21:06;;;;;;;9.70;7.40;;;;;;;12.19;100.00;100286.55;88089;278;136736;-71
2023/10/24 07:23:08;;;;;;;7.10;6.20;;;;;;;12.25;100.00;100286.98;88303;276;25325;-70
2023/10/24 07:25:09;;;;;;;8.00;5.60;;;;;;;12.23;100.00;100279.49;88180;281;136694;-70
2023/10/24 07:27:11;;;;;;;12.10;6.40;;;;;;;12.33;100.00;100292.36;88247;281;22559;-70
2023/10/24 07:29:13;;;;;;;8.70;6.50;;;;;;;12.39;100.00;100295.95;88163;279;137130;-73
2023/10/24 07:31:15;;;;;;;12.70;6.40;;;;;;;12.43;100.00;100297.16;88381;276;24735;-71
2023/10/24 07:33:23;;;;;;;6.10;5.60;;;;;;;12.43;100.00;100292.05;88524;276;136728;-71
2023/10/24 07:35:25;;;;;;;;;;;;;;;12.47;100.00;100293.42;88281;277;22526;-70
2023/10/24 07:37:28;;;;;;;6.20;5.60;;;;;;;12.55;100.00;100286.61;88296;277;123443;-71
2023/10/24 07:39:31;;;;;;;8.30;5.60;;;;;;;12.65;100.00;100285.85;88312;282;22537;-73
2023/10/24 07:41:33;;;;;;;9.70;6.30;;;;;;;12.72;100.00;100289.81;88909;278;136520;-76
2023/10/24 07:43:35;;;;;;;6.90;5.90;;;;;;;12.76;100.00;100294.25;88356;277;22540;-80
2023/10/24 07:45:37;;;;;;;5.80;5.20;;;;;;;12.82;100.00;100294.15;88308;281;137095;-69
2023/10/24 07:47:39;;;;;;;6.30;4.30;;;;;;;12.88;100.00;100294.11;88425;284;22623;-68
2023/10/24 07:49:41;;;;;;;5.20;4.30;;;;;;;12.91;100.00;100300.29;88330;281;136969;-67
2023/10/24 07:51:43;;;;;;;6.20;4.50;;;;;;;12.93;100.00;100301.61;88226;276;22560;-70
2023/10/24 07:53:44;;;;;;;5.00;4.40;;;;;;;12.95;100.00;100301.83;88319;276;138055;-67
2023/10/24 07:55:46;;;;;;;6.70;5.10;;;;;;;12.98;100.00;100302.94;88445;277;22780;-73
2023/10/24 07:57:51;;;;;;;4.40;4.00;;;;;;;12.99;100.00;100301.69;88522;285;136697;-68
2023/10/24 07:59:53;;;;;;;3.70;3.50;;;;;;;13.02;100.00;100304.70;88806;276;24058;-69
2023/10/24 08:01:55;;;;;;;5.70;5.10;;;;;;;13.07;100.00;100302.12;88484;275;137763;-68
2023/10/24 08:03:58;;;;;;;4.50;4.10;;;;;;;13.11;100.00;100300.41;88778;276;22721;-68
2023/10/24 08:05:59;;;;;;;4.70;4.00;;;;;;;13.16;100.00;100302.69;88619;276;137781;-70
2023/10/24 08:08:01;;;;;;;5.20;4.10;;;;;;;13.10;100.00;100291.31;89613;276;22541;-72
2023/10/24 08:10:03;;;;;;;5.50;4.00;;;;;;;13.17;100.00;100296.55;89969;276;22573;-71
2023/10/24 08:12:06;;;;;;;6.80;5.10;;;;;;;13.19;100.00;100296.72;89279;281;137306;-73
2023/10/24 08:14:07;;;;;;;5.50;4.40;;;;;;;13.21;100.00;100299.39;88908;281;22599;-75
2023/10/24 08:16:09;;;;;;;6.70;4.90;;;;;;;13.27;100.00;100300.34;88744;277;137152;-73
2023/10/24 08:18:11;;;;;;;4.80;4.30;;;;;;;13.33;100.00;100302.83;88757;277;25437;-74
2023/10/24 08:20:13;;;;;;;5.90;4.00;;;;;;;13.36;100.00;100302.22;88647;278;136364;-74
2023/10/24 08:22:15;;;;;;;4.20;3.80;;;;;;;13.38;100.00;100304.11;88929;279;24107;-74
2023/10/24 08:24:16;;;;;;;5.70;4.80;;;;;;;13.42;100.00;100305.95;88852;272;136281;-77
2023/10/24 08:26:19;;;;;;;5.30;3.40;;;;;;;13.46;100.00;100305.49;89094;272;22841;-74
2023/10/24 08:28:21;;;;;;;4.50;4.20;;;;;;;13.51;100.00;100312.73;88968;272;138426;-74
2023/10/24 08:30:23;;;;;;;8.60;5.50;;;;;;;13.58;100.00;100313.43;88923;276;22550;-73
2023/10/24 08:32:25;;;;;;;4.30;3.90;;;;;;;13.65;100.00;100312.30;88911;279;136264;-75
2023/10/24 08:34:27;;;;;;;4.90;4.00;;;;;;;13.69;100.00;100313.00;89118;276;22533;-76
2023/10/24 08:36:29;;;;;;;6.10;3.80;;;;;;;13.73;100.00;100316.86;88792;276;138471;-74
2023/10/24 08:38:30;;;;;;;4.30;3.20;;;;;;;13.76;100.00;100319.36;88978;272;22615;-75
2023/10/24 08:40:32;;;;;;;4.30;3.50;;;;;;;13.80;100.00;100312.05;88721;280;137944;-74
2023/10/24 08:42:36;;;;;;;4.10;3.70;;;;;;;13.82;100.00;100311.69;88910;272;25162;-76
2023/10/24 08:44:40;;;;;;;5.20;4.80;;;;;;;13.83;100.00;100310.38;88977;276;136718;-74
2023/10/24 08:46:44;;;;;;;5.30;4.60;;;;;;;13.84;100.00;100313.61;88873;277;22865;-75
2023/10/24 08:48:47;;;;;;;5.20;4.60;;;;;;;13.86;100.00;100314.27;88783;272;136132;-75
2023/10/24 08:50:49;;;;;;;5.10;4.70;;;;;;;13.87;100.00;100312.55;88893;271;22515;-73
2023/10/24 08:52:51;;;;;;;5.80;5.10;;;;;;;13.87;100.00;100312.91;88757;276;136482;-79
2023/10/24 08:54:54;;;;;;;7.60;5.40;;;;;;;13.88;100.00;100309.53;88865;277;22537;-77
2023/10/24 08:56:57;;;;;;;5.80;4.60;;;;;;;13.93;100.00;100310.46;88828;273;136410;-77
2023/10/24 08:58:59;;;;;;;6.60;4.20;;;;;;;13.99;100.00;100304.96;89248;276;24063;-73
2023/10/24 09:01:02;;;;;;;6.60;4.50;;;;;;;14.06;100.00;100296.36;88908;279;136086;-75
2023/10/24 09:03:03;;;;;;;6.40;5.60;;;;;;;14.08;100.00;100296.90;88838;273;22571;-75
2023/10/24 09:05:08;;;;;;;6.30;4.50;;;;;;;14.07;100.00;100300.20;88708;276;137024;-76
2023/10/24 09:07:10;;;;;;;5.90;4.60;;;;;;;13.99;100.00;100290.03;88991;275;22491;-74
2023/10/24 09:09:13;;;;;;;5.30;4.60;;;;;;;14.06;100.00;100298.42;88969;272;137135;-77
2023/10/24 09:11:16;;;;;;;4.90;4.50;;;;;;;14.06;99.72;100302.30;89104;272;22754;-76
2023/10/24 09:13:18;;;;;;;5.80;4.30;;;;;;;14.03;99.85;100306.96;88673;274;136113;-76
2023/10/24 09:15:20;;;;;;;4.20;3.90;;;;;;;14.01;100.00;100308.30;88895;280;23830;-76
2023/10/24 09:17:23;;;;;;;5.60;5.10;;;;;;;14.06;100.00;100311.70;88710;273;137353;-76
2023/10/24 09:19:29;;;;;;;4.70;4.30;;;;;;;14.13;100.00;100311.63;89000;273;25216;-77
2023/10/24 09:21:30;;;;;;;5.80;3.90;;;;;;;14.20;100.00;100310.98;88841;272;136994;-76
2023/10/24 09:23:33;;;;;;;4.70;4.30;;;;;;;14.25;100.00;100312.95;88747;280;24083;-75
2023/10/24 09:25:35;;;;;;;4.80;4.30;;;;;;;14.23;100.00;100308.33;88790;273;136513;-76
2023/10/24 09:27:37;;;;;;;5.60;4.50;;;;;;;14.21;100.00;100299.91;88791;277;22547;-76
2023/10/24 09:29:40;;;;;;;4.70;4.20;;;;;;;14.18;99.96;100299.78;88686;273;136050;-75